Time;durP1;ratioP1;P1;durP2;ratioP2;P2;SDS_P1;SDS_P2;PMS_P1;PMS_P2;Temp;Humidity;BMP_temperature;BMP_pressure;BME280_temperature;BME280_humidity;BME280_pressure;Samples;Min_cycle;Max_cycle;Signal;HPM_P1;HPM_P2
2023/08/14 00:01:12;;;;;;;9.60;5.70;;;18.50;99.90;;;;;;5143877;27;20461;-78
2023/08/14 00:03:38;;;;;;;11.07;5.60;;;18.50;99.90;;;;;;5139570;27;20518;-78
2023/08/14 00:06:05;;;;;;;7.43;4.90;;;18.40;99.90;;;;;;5139789;27;20442;-78
2023/08/14 00:08:32;;;;;;;10.27;6.50;;;18.40;99.90;;;;;;5137001;27;20470;-79
2023/08/14 00:11:01;;;;;;;9.37;5.60;;;18.40;99.90;;;;;;5130808;27;20501;-78
2023/08/14 00:13:29;;;;;;;7.93;5.43;;;18.20;99.90;;;;;;5141786;27;20489;-79
2023/08/14 00:15:55;;;;;;;7.37;4.60;;;18.20;99.90;;;;;;5133386;27;20465;-78
2023/08/14 00:18:23;;;;;;;8.80;4.97;;;18.10;99.90;;;;;;5137263;27;20453;-78
2023/08/14 00:20:50;;;;;;;8.97;5.27;;;18.10;99.90;;;;;;5135938;27;20543;-77
2023/08/14 00:23:17;;;;;;;10.00;5.37;;;18.10;99.90;;;;;;5133633;27;20475;-79
2023/08/14 00:25:44;;;;;;;6.40;4.73;;;18.10;99.90;;;;;;5138187;27;20468;-79
2023/08/14 00:28:12;;;;;;;7.00;4.47;;;18.10;99.90;;;;;;5133544;27;20450;-79
2023/08/14 00:30:39;;;;;;;11.73;5.83;;;18.10;99.90;;;;;;5129333;27;20454;-78
2023/08/14 00:33:06;;;;;;;8.30;4.83;;;18.10;99.90;;;;;;5137025;27;20593;-78
2023/08/14 00:35:34;;;;;;;7.27;5.20;;;18.10;99.90;;;;;;5132518;27;20491;-78
2023/08/14 00:38:01;;;;;;;7.20;4.90;;;18.10;99.90;;;;;;5136389;27;20487;-80
2023/08/14 00:40:28;;;;;;;11.67;5.00;;;18.10;99.90;;;;;;5133856;27;20438;-78
2023/08/14 00:42:55;;;;;;;7.57;3.97;;;18.10;99.90;;;;;;5139116;27;20481;-78
2023/08/14 00:45:24;;;;;;;12.63;7.23;;;18.00;99.90;;;;;;5137533;27;20489;-78
2023/08/14 00:47:51;;;;;;;8.33;4.83;;;18.00;99.90;;;;;;5137944;27;20441;-79
2023/08/14 00:50:19;;;;;;;8.43;5.80;;;17.90;99.90;;;;;;5130927;27;20462;-79
2023/08/14 00:52:48;;;;;;;13.53;6.07;;;17.90;99.90;;;;;;5130895;27;21020;-78
2023/08/14 00:55:19;;;;;;;7.33;6.57;;;17.90;99.90;;;;;;5135826;27;20531;-78
2023/08/14 00:57:46;;;;;;;10.67;5.60;;;17.80;99.90;;;;;;5133907;27;20438;-78
2023/08/14 01:00:16;;;;;;;8.33;5.47;;;17.80;99.90;;;;;;5131400;27;20447;-76
2023/08/14 01:02:44;;;;;;;12.90;7.03;;;17.80;99.90;;;;;;5134864;27;20517;-78
2023/08/14 01:05:12;;;;;;;12.30;6.53;;;17.80;99.90;;;;;;5131944;27;20525;-76
2023/08/14 01:07:39;;;;;;;9.53;6.30;;;17.80;99.90;;;;;;5133323;27;20467;-78
2023/08/14 01:10:08;;;;;;;10.40;6.60;;;17.80;99.90;;;;;;5126087;27;20478;-78
2023/08/14 01:12:43;;;;;;;6.90;6.00;;;17.80;99.90;;;;;;5138754;27;20486;-78
2023/08/14 01:15:13;;;;;;;9.47;6.20;;;17.80;99.90;;;;;;5130690;27;20453;-78
2023/08/14 01:17:44;;;;;;;7.03;5.77;;;17.70;99.90;;;;;;5132470;27;20532;-78
2023/08/14 01:20:16;;;;;;;8.40;6.30;;;17.60;99.90;;;;;;5141902;27;20472;-78
2023/08/14 01:22:55;;;;;;;7.90;5.90;;;17.70;99.90;;;;;;5132774;27;20520;-77
2023/08/14 01:25:31;;;;;;;8.63;7.10;;;17.60;99.90;;;;;;5132736;27;20435;-77
2023/08/14 01:27:59;;;;;;;10.30;6.17;;;17.70;99.90;;;;;;5138987;27;20449;-79
2023/08/14 01:30:26;;;;;;;6.90;5.67;;;17.70;99.90;;;;;;5138759;27;20476;-78
2023/08/14 01:32:54;;;;;;;9.80;7.00;;;17.70;99.90;;;;;;5139786;27;20480;-77
2023/08/14 01:35:23;;;;;;;9.73;6.07;;;17.60;99.90;;;;;;5137170;27;20517;-79
2023/08/14 01:37:59;;;;;;;9.10;6.30;;;17.60;99.90;;;;;;5132706;27;20556;-78
2023/08/14 01:40:34;;;;;;;10.03;6.23;;;17.60;99.90;;;;;;5135041;27;20489;-78
2023/08/14 01:43:07;;;;;;;8.67;6.13;;;17.60;99.90;;;;;;5130852;27;20454;-79
2023/08/14 01:45:36;;;;;;;12.80;7.20;;;17.50;99.90;;;;;;5136411;27;20855;-78
2023/08/14 01:48:07;;;;;;;12.57;6.70;;;17.50;99.90;;;;;;5137232;27;20518;-78
2023/08/14 01:50:35;;;;;;;11.77;6.93;;;17.50;99.90;;;;;;5131365;27;20528;-79
2023/08/14 01:53:02;;;;;;;8.73;5.37;;;17.40;99.90;;;;;;5136053;27;20588;-79
2023/08/14 01:55:31;;;;;;;9.40;7.13;;;17.40;99.90;;;;;;5132982;27;20524;-79
2023/08/14 01:57:58;;;;;;;9.30;6.93;;;17.50;99.90;;;;;;5133227;27;20505;-79
2023/08/14 02:00:26;;;;;;;8.13;6.70;;;17.40;99.90;;;;;;5142336;27;21021;-79
2023/08/14 02:02:54;;;;;;;9.90;7.40;;;17.40;99.90;;;;;;5133900;27;20465;-79
2023/08/14 02:05:21;;;;;;;9.43;6.20;;;17.40;99.90;;;;;;5144162;27;20426;-79
2023/08/14 02:07:47;;;;;;;9.27;6.90;;;17.40;99.90;;;;;;5134321;27;20529;-79
2023/08/14 02:10:16;;;;;;;7.60;5.70;;;17.40;99.90;;;;;;5130105;27;20487;-79
2023/08/14 02:12:44;;;;;;;10.40;8.63;;;17.30;99.90;;;;;;5136472;27;20293;-78
2023/08/14 02:15:11;;;;;;;14.13;7.90;;;17.30;99.90;;;;;;5141642;27;20224;-79
2023/08/14 02:17:38;;;;;;;8.48;6.30;;;17.30;99.90;;;;;;5131281;27;20870;-78
2023/08/14 02:20:08;;;;;;;13.00;7.23;;;17.30;99.90;;;;;;5135397;27;20205;-76
2023/08/14 02:22:35;;;;;;;9.48;7.43;;;17.30;99.90;;;;;;5125506;27;20525;-77
2023/08/14 02:25:01;;;;;;;11.95;6.80;;;17.30;99.90;;;;;;5135389;27;20213;-77
2023/08/14 02:27:28;;;;;;;10.45;7.97;;;17.20;99.90;;;;;;5129961;27;20717;-77
2023/08/14 02:29:57;;;;;;;10.47;8.20;;;17.20;99.90;;;;;;5134614;27;20622;-78
2023/08/14 02:32:24;;;;;;;8.87;7.67;;;17.10;99.90;;;;;;5146500;27;20475;-78
2023/08/14 02:34:52;;;;;;;9.17;7.50;;;17.10;99.90;;;;;;5130632;27;20515;-77
2023/08/14 02:37:20;;;;;;;10.57;7.60;;;17.10;99.90;;;;;;5131632;27;20441;-78
2023/08/14 02:39:47;;;;;;;10.43;7.40;;;17.10;99.90;;;;;;5129432;27;20917;-79
2023/08/14 02:42:16;;;;;;;10.80;8.60;;;17.10;99.90;;;;;;5126418;27;20291;-79
2023/08/14 02:44:43;;;;;;;12.10;8.43;;;17.00;99.90;;;;;;5138637;27;20214;-79
2023/08/14 02:47:12;;;;;;;13.85;9.50;;;17.00;99.90;;;;;;5130396;27;20493;-78
2023/08/14 02:49:39;;;;;;;12.02;8.80;;;16.90;99.90;;;;;;5120257;27;20205;-78
2023/08/14 02:52:07;;;;;;;16.10;8.50;;;16.90;99.90;;;;;;5125981;27;20652;-78
2023/08/14 02:54:34;;;;;;;14.15;8.13;;;16.80;99.90;;;;;;5132186;27;20574;-79
2023/08/14 02:57:03;;;;;;;10.60;7.70;;;16.80;99.90;;;;;;5127423;27;20199;-79
2023/08/14 02:59:32;;;;;;;14.90;8.03;;;16.80;99.90;;;;;;5125337;27;20935;-79
2023/08/14 03:01:59;;;;;;;13.63;9.15;;;16.80;99.90;;;;;;5129696;27;20452;-79
2023/08/14 03:04:29;;;;;;;10.27;8.90;;;16.80;99.90;;;;;;5128213;27;20221;-78
2023/08/14 03:06:56;;;;;;;10.77;7.07;;;16.80;99.90;;;;;;5121673;27;20202;-79
2023/08/14 03:09:23;;;;;;;14.48;9.32;;;16.80;99.90;;;;;;5134017;27;20724;-78
2023/08/14 03:11:50;;;;;;;10.00;8.27;;;16.70;99.90;;;;;;5128241;27;20229;-78
2023/08/14 03:14:17;;;;;;;9.57;8.00;;;16.80;99.90;;;;;;5128273;27;20314;-78
2023/08/14 03:16:44;;;;;;;15.60;9.13;;;16.70;99.90;;;;;;5128423;27;20223;-79
2023/08/14 03:19:11;;;;;;;11.02;8.10;;;16.70;99.90;;;;;;5126564;27;20197;-79
2023/08/14 03:21:41;;;;;;;9.35;8.43;;;16.60;99.90;;;;;;5115904;27;20266;-79
2023/08/14 03:24:08;;;;;;;15.15;9.30;;;16.50;99.90;;;;;;5132487;27;20281;-80
2023/08/14 03:26:35;;;;;;;14.73;9.25;;;16.50;99.90;;;;;;5128098;27;20197;-80
2023/08/14 03:29:02;;;;;;;13.60;9.48;;;16.50;99.90;;;;;;5132572;27;20700;-80
2023/08/14 03:31:31;;;;;;;12.35;8.98;;;16.50;99.90;;;;;;5130710;27;20304;-80
2023/08/14 03:33:58;;;;;;;10.48;9.48;;;16.50;99.90;;;;;;5126461;27;20225;-78
2023/08/14 03:36:26;;;;;;;12.93;8.77;;;16.50;99.90;;;;;;5131171;27;20229;-78
2023/08/14 03:38:54;;;;;;;10.07;9.07;;;16.40;99.90;;;;;;5125870;27;20277;-78
2023/08/14 03:41:21;;;;;;;11.07;9.65;;;16.40;99.90;;;;;;5132868;27;20232;-78
2023/08/14 03:43:48;;;;;;;10.13;9.10;;;16.40;99.90;;;;;;5126297;27;20306;-78
2023/08/14 03:46:15;;;;;;;10.65;9.13;;;16.50;99.90;;;;;;5130693;27;20207;-80
2023/08/14 03:48:42;;;;;;;12.40;8.65;;;16.50;99.90;;;;;;5121067;27;20293;-78
2023/08/14 03:51:09;;;;;;;14.00;8.55;;;16.40;99.90;;;;;;5134755;27;20290;-79
2023/08/14 03:53:36;;;;;;;10.65;8.40;;;16.40;99.90;;;;;;5137605;27;20317;-79
2023/08/14 03:56:04;;;;;;;9.05;7.90;;;16.50;99.90;;;;;;5133518;27;20280;-78
2023/08/14 03:58:32;;;;;;;11.10;8.43;;;16.50;99.90;;;;;;5136614;27;20230;-79
2023/08/14 04:00:58;;;;;;;8.13;7.30;;;16.50;99.90;;;;;;5140010;27;20197;-79
2023/08/14 04:03:25;;;;;;;12.10;8.68;;;16.50;99.90;;;;;;5133515;27;20311;-79
2023/08/14 04:05:56;;;;;;;8.60;7.80;;;16.50;99.90;;;;;;5127718;27;20241;-77
2023/08/14 04:08:26;;;;;;;13.60;9.25;;;16.50;99.90;;;;;;5129041;27;20199;-78
2023/08/14 04:10:57;;;;;;;7.90;6.65;;;16.50;99.90;;;;;;5123976;27;20226;-79
2023/08/14 04:13:25;;;;;;;13.75;8.02;;;16.50;99.90;;;;;;5129611;27;20355;-79
2023/08/14 04:15:59;;;;;;;9.63;8.48;;;16.60;99.90;;;;;;5129931;27;20221;-78
2023/08/14 04:18:26;;;;;;;7.72;6.93;;;16.60;99.90;;;;;;5116099;27;20252;-79
2023/08/14 04:20:53;;;;;;;11.80;7.60;;;16.60;99.90;;;;;;5125953;27;20231;-79
2023/08/14 04:23:20;;;;;;;12.68;8.93;;;16.70;99.90;;;;;;5128263;27;20302;-78
2023/08/14 04:25:47;;;;;;;14.60;7.80;;;16.70;99.90;;;;;;5131887;27;20198;-78
2023/08/14 04:28:14;;;;;;;13.18;9.73;;;16.80;99.90;;;;;;5131977;27;20257;-78
2023/08/14 04:30:43;;;;;;;7.47;6.72;;;16.80;99.90;;;;;;5129108;27;20289;-77
2023/08/14 04:33:10;;;;;;;7.78;6.93;;;16.90;99.90;;;;;;5128260;27;20309;-79
2023/08/14 04:35:38;;;;;;;12.03;8.43;;;17.00;99.90;;;;;;5138313;27;20204;-79
2023/08/14 04:38:05;;;;;;;11.77;8.65;;;17.00;99.90;;;;;;5134966;27;20531;-79
2023/08/14 04:40:34;;;;;;;12.60;7.07;;;17.10;99.90;;;;;;5122531;27;20232;-77
2023/08/14 04:43:01;;;;;;;8.33;6.57;;;17.20;99.90;;;;;;5131593;27;20621;-78
2023/08/14 04:45:28;;;;;;;11.90;6.80;;;17.30;99.90;;;;;;5128194;27;20532;-77
2023/08/14 04:47:56;;;;;;;14.10;7.60;;;17.30;99.90;;;;;;5134544;27;20438;-78
2023/08/14 04:50:23;;;;;;;11.77;8.20;;;17.40;99.90;;;;;;5129498;27;20449;-78
2023/08/14 04:52:50;;;;;;;11.40;7.33;;;17.50;99.90;;;;;;5122012;27;20480;-78
2023/08/14 04:55:17;;;;;;;10.13;8.02;;;17.60;99.90;;;;;;5131783;27;20570;-78
2023/08/14 04:57:43;;;;;;;11.37;7.70;;;17.70;99.90;;;;;;5122882;27;20257;-79
2023/08/14 05:00:12;;;;;;;8.20;7.30;;;17.80;99.90;;;;;;5128889;27;20471;-78
2023/08/14 05:02:39;;;;;;;8.53;6.77;;;17.90;99.90;;;;;;5131739;27;20482;-78
2023/08/14 05:05:08;;;;;;;10.17;6.87;;;18.10;99.90;;;;;;5123087;27;20477;-77
2023/08/14 05:07:35;;;;;;;7.30;6.40;;;18.40;99.90;;;;;;5125775;27;20473;-77
2023/08/14 05:10:03;;;;;;;13.60;7.00;;;18.90;99.90;;;;;;5121946;27;20948;-77
2023/08/14 05:12:30;;;;;;;10.53;6.10;;;19.50;99.90;;;;;;5131482;27;20477;-77
2023/08/14 05:14:58;;;;;;;13.90;4.53;;;20.40;99.90;;;;;;5130240;27;20545;-77
2023/08/14 05:17:27;;;;;;;8.80;5.67;;;21.60;99.90;;;;;;5120673;27;20468;-77
2023/08/14 05:19:53;;;;;;;7.30;4.50;;;22.60;99.90;;;;;;5129739;27;20481;-78
2023/08/14 05:22:22;;;;;;;10.80;4.60;;;23.50;99.90;;;;;;5121295;27;20530;-77
2023/08/14 05:24:49;;;;;;;7.90;4.97;;;24.30;99.90;;;;;;5131386;27;20545;-77
2023/08/14 05:27:16;;;;;;;12.00;5.67;;;25.40;99.90;;;;;;5132826;27;20513;-78
2023/08/14 05:29:43;;;;;;;8.33;5.70;;;26.50;99.90;;;;;;5129444;27;20523;-78
2023/08/14 05:32:10;;;;;;;7.40;4.70;;;26.50;99.90;;;;;;5126011;27;20491;-76
2023/08/14 05:34:36;;;;;;;7.60;4.50;;;26.10;99.90;;;;;;5132210;27;20892;-77
2023/08/14 05:37:03;;;;;;;6.83;5.63;;;25.70;99.90;;;;;;5128200;27;20913;-77
2023/08/14 05:39:32;;;;;;;7.63;4.97;;;25.30;99.90;;;;;;5126531;27;20871;-79
2023/08/14 05:41:59;;;;;;;6.43;5.63;;;24.80;99.90;;;;;;5117995;27;20492;-78
2023/08/14 05:44:27;;;;;;;8.87;4.03;;;24.40;99.90;;;;;;5133356;27;20459;-77
2023/08/14 05:46:55;;;;;;;13.47;6.17;;;24.70;99.90;;;;;;5132944;27;20450;-78
2023/08/14 05:49:22;;;;;;;7.90;5.10;;;25.60;99.90;;;;;;5131617;27;20537;-77
2023/08/14 05:51:51;;;;;;;7.00;4.87;;;26.60;99.90;;;;;;5133163;27;20519;-77
2023/08/14 05:54:18;;;;;;;6.87;3.93;;;27.00;98.40;;;;;;5128083;27;20515;-77
2023/08/14 05:56:47;;;;;;;6.93;4.93;;;27.20;98.30;;;;;;5139897;27;20570;-77
2023/08/14 05:59:14;;;;;;;16.80;6.40;;;27.90;97.00;;;;;;5130970;27;20450;-77
2023/08/14 06:01:46;;;;;;;19.80;7.57;;;28.40;95.40;;;;;;5131911;27;20521;-77
2023/08/14 06:04:21;;;;;;;4.60;4.07;;;28.80;94.20;;;;;;5128885;27;20470;-78
2023/08/14 06:06:48;;;;;;;7.10;3.97;;;29.10;93.70;;;;;;5132078;27;20516;-78
2023/08/14 06:09:17;;;;;;;4.10;3.33;;;29.50;92.70;;;;;;5129283;27;20880;-75
2023/08/14 06:11:46;;;;;;;6.93;4.77;;;29.90;92.40;;;;;;5113085;27;20531;-76
2023/08/14 06:14:35;;;;;;;14.87;5.57;;;30.60;91.10;;;;;;5128276;27;20472;-76
2023/08/14 06:17:03;;;;;;;8.20;4.73;;;31.30;90.00;;;;;;5126635;27;20504;-75
2023/08/14 06:19:33;;;;;;;9.07;3.87;;;31.30;88.10;;;;;;5132633;27;20824;-76
2023/08/14 06:22:00;;;;;;;10.07;5.13;;;31.40;88.00;;;;;;5129886;27;20446;-75
2023/08/14 06:24:29;;;;;;;10.87;4.40;;;31.10;87.10;;;;;;5131399;27;20482;-76
2023/08/14 06:26:57;;;;;;;5.10;3.60;;;31.10;87.80;;;;;;5127643;27;20538;-77
2023/08/14 06:29:26;;;;;;;7.30;4.80;;;31.70;87.10;;;;;;5123507;27;20534;-77
2023/08/14 06:31:54;;;;;;;7.00;4.50;;;32.30;86.10;;;;;;5129076;28;20450;-78
2023/08/14 06:34:21;;;;;;;7.00;5.17;;;32.70;84.60;;;;;;5126797;27;20514;-74
2023/08/14 06:36:48;;;;;;;6.63;4.60;;;32.80;83.20;;;;;;5129082;27;20438;-75
2023/08/14 06:39:17;;;;;;;9.57;5.00;;;33.40;82.80;;;;;;5128281;27;20437;-76
2023/08/14 06:41:43;;;;;;;4.47;4.03;;;34.30;80.50;;;;;;5134592;27;20522;-75
2023/08/14 06:44:22;;;;;;;11.17;4.70;;;34.70;78.60;;;;;;5127477;27;20619;-76
2023/08/14 06:46:49;;;;;;;8.80;4.60;;;34.40;77.60;;;;;;5128444;27;20454;-74
2023/08/14 06:49:24;;;;;;;7.60;4.43;;;34.50;78.20;;;;;;5123758;27;20514;-80
2023/08/14 06:51:51;;;;;;;10.77;4.70;;;35.00;76.70;;;;;;5131919;27;20875;-80
2023/08/14 06:54:18;;;;;;;8.30;4.30;;;35.30;75.80;;;;;;5131770;27;20497;-78
2023/08/14 06:56:45;;;;;;;6.73;3.40;;;35.60;74.00;;;;;;5132609;27;20454;-78
2023/08/14 06:59:12;;;;;;;5.73;4.17;;;35.90;73.30;;;;;;5127735;27;20510;-79
2023/08/14 07:01:41;;;;;;;6.13;4.80;;;36.50;72.60;;;;;;5125749;27;20487;-79
2023/08/14 07:04:09;;;;;;;13.00;5.07;;;35.80;72.60;;;;;;5126852;27;20493;-79
2023/08/14 07:06:36;;;;;;;7.20;5.50;;;35.30;74.00;;;;;;5130950;27;20483;-77
2023/08/14 07:09:03;;;;;;;7.97;4.07;;;35.00;74.50;;;;;;5131682;27;20530;-79
2023/08/14 07:11:36;;;;;;;8.20;5.10;;;34.70;73.50;;;;;;5124991;27;20436;-82
2023/08/14 07:14:03;;;;;;;8.30;5.03;;;33.90;75.80;;;;;;5129770;27;20458;-80
2023/08/14 07:16:30;;;;;;;5.40;3.80;;;34.00;75.40;;;;;;5133521;27;20450;-80
2023/08/14 07:18:59;;;;;;;12.33;5.53;;;33.90;76.20;;;;;;5126390;27;20485;-79
2023/08/14 07:21:26;;;;;;;5.23;3.43;;;33.90;76.90;;;;;;5130317;27;20522;-80
2023/08/14 07:23:53;;;;;;;6.30;5.07;;;33.80;76.00;;;;;;5128241;27;20490;-79
2023/08/14 07:26:20;;;;;;;8.40;4.83;;;32.90;76.70;;;;;;5135021;27;20436;-80
2023/08/14 07:28:47;;;;;;;5.87;3.90;;;32.50;78.20;;;;;;5129956;27;20432;-80
2023/08/14 07:31:14;;;;;;;5.80;3.57;;;32.10;79.80;;;;;;5130735;27;20446;-80
2023/08/14 07:33:41;;;;;;;8.30;3.77;;;31.70;79.80;;;;;;5133940;27;20454;-79
2023/08/14 07:36:09;;;;;;;5.80;3.10;;;31.60;81.10;;;;;;5127510;27;20518;-80
2023/08/14 07:38:36;;;;;;;4.30;3.20;;;31.40;81.10;;;;;;5132592;27;20480;-79
2023/08/14 07:41:03;;;;;;;5.50;3.57;;;31.40;80.90;;;;;;5125609;27;20443;-79
2023/08/14 07:43:32;;;;;;;9.63;3.57;;;31.60;80.60;;;;;;5130131;27;20463;-79
2023/08/14 07:45:59;;;;;;;6.40;3.80;;;31.20;80.20;;;;;;5129230;27;20473;-79
2023/08/14 07:48:26;;;;;;;5.97;3.50;;;30.70;81.20;;;;;;5136190;27;20435;-80
2023/08/14 07:50:53;;;;;;;4.07;2.60;;;30.20;83.10;;;;;;5118046;27;20511;-80
2023/08/14 07:53:24;;;;;;;3.60;2.70;;;29.60;84.30;;;;;;5124842;27;20464;-80
2023/08/14 07:55:51;;;;;;;6.63;3.00;;;29.00;85.80;;;;;;5118581;27;20805;-79
2023/08/14 07:58:19;;;;;;;5.80;2.70;;;28.40;88.30;;;;;;5134385;27;20928;-79
2023/08/14 08:00:46;;;;;;;5.03;3.17;;;28.10;89.90;;;;;;5130211;27;20509;-79
2023/08/14 08:03:14;;;;;;;4.43;3.13;;;28.00;89.60;;;;;;5130227;27;20537;-80
2023/08/14 08:05:42;;;;;;;4.83;3.40;;;27.90;90.40;;;;;;5126582;27;20557;-80
2023/08/14 08:08:09;;;;;;;6.30;3.03;;;27.70;90.40;;;;;;5130625;27;20434;-80
2023/08/14 08:10:37;;;;;;;4.87;2.70;;;27.70;90.50;;;;;;5121968;27;20443;-78
2023/08/14 08:13:05;;;;;;;6.23;3.53;;;27.90;90.60;;;;;;5125565;27;20871;-79
2023/08/14 08:15:32;;;;;;;4.40;4.00;;;28.40;90.30;;;;;;5120950;27;20444;-80
2023/08/14 08:18:04;;;;;;;3.90;2.70;;;29.00;89.70;;;;;;5129695;27;20447;-84
2023/08/14 08:20:31;;;;;;;7.30;3.67;;;29.70;88.20;;;;;;5133163;27;20476;-80
2023/08/14 08:22:58;;;;;;;5.20;2.57;;;29.80;87.50;;;;;;5131967;27;20444;-80
2023/08/14 08:25:25;;;;;;;5.83;2.63;;;29.50;87.50;;;;;;5123909;27;20556;-80
2023/08/14 08:27:53;;;;;;;6.03;2.80;;;29.10;87.80;;;;;;5136750;27;20498;-79
2023/08/14 08:30:21;;;;;;;8.07;2.60;;;29.40;86.60;;;;;;5128047;27;20450;-80
2023/08/14 08:32:48;;;;;;;4.07;2.43;;;29.40;87.20;;;;;;5132254;27;20461;-81
2023/08/14 08:35:15;;;;;;;5.00;2.50;;;29.60;86.70;;;;;;5129583;27;20441;-80
2023/08/14 08:37:42;;;;;;;3.53;2.13;;;29.50;86.10;;;;;;5127409;27;20463;-81
2023/08/14 08:40:12;;;;;;;5.13;2.90;;;29.50;85.80;;;;;;5133053;27;20848;-80
2023/08/14 08:42:39;;;;;;;6.27;3.10;;;29.40;86.00;;;;;;5127911;27;20435;-81
2023/08/14 08:45:11;;;;;;;5.43;2.87;;;29.10;86.80;;;;;;5130760;27;20463;-79
2023/08/14 08:47:40;;;;;;;5.40;2.87;;;29.00;87.80;;;;;;5128232;27;20475;-82
2023/08/14 08:50:10;;;;;;;5.40;3.43;;;28.50;89.60;;;;;;5126243;27;20447;-80
2023/08/14 08:52:37;;;;;;;6.40;3.43;;;28.20;90.50;;;;;;5115735;27;20518;-80
2023/08/14 08:55:05;;;;;;;6.17;3.13;;;28.10;90.80;;;;;;5134787;27;20458;-79
2023/08/14 08:57:32;;;;;;;10.60;3.60;;;27.90;90.70;;;;;;5132184;27;20463;-81
2023/08/14 09:00:00;;;;;;;5.20;3.07;;;27.80;91.80;;;;;;5133636;27;20521;-79
2023/08/14 09:02:29;;;;;;;9.40;2.97;;;27.80;91.70;;;;;;5134080;27;20454;-79
2023/08/14 09:04:59;;;;;;;3.97;2.20;;;27.80;91.80;;;;;;5130550;27;20505;-80
2023/08/14 09:07:26;;;;;;;7.80;3.47;;;27.80;92.00;;;;;;5134081;27;20499;-79
2023/08/14 09:09:53;;;;;;;7.60;3.60;;;27.90;92.00;;;;;;5117474;27;20457;-79
2023/08/14 09:12:20;;;;;;;6.63;2.63;;;28.10;91.50;;;;;;5119694;27;20491;-79
2023/08/14 09:15:04;;;;;;;6.03;3.30;;;28.60;91.10;;;;;;5131676;27;20466;-78
2023/08/14 09:17:32;;;;;;;4.87;2.80;;;29.30;89.40;;;;;;5122710;27;20913;-79
2023/08/14 09:19:59;;;;;;;6.03;3.10;;;29.60;90.10;;;;;;5125714;27;20478;-79
2023/08/14 09:22:27;;;;;;;10.97;3.30;;;29.80;89.00;;;;;;5127429;27;20551;-80
2023/08/14 09:24:55;;;;;;;9.40;3.83;;;29.60;87.40;;;;;;5131509;27;20550;-78
2023/08/14 09:27:22;;;;;;;17.33;5.30;;;29.60;88.40;;;;;;5125830;27;20488;-80
2023/08/14 09:29:51;;;;;;;7.67;4.67;;;30.00;87.80;;;;;;5131819;27;20442;-80
2023/08/14 09:32:23;;;;;;;5.53;2.77;;;30.20;87.40;;;;;;5135672;27;20864;-79
2023/08/14 09:34:59;;;;;;;5.10;2.97;;;30.20;87.10;;;;;;5131432;27;20470;-79
2023/08/14 09:37:27;;;;;;;7.33;3.83;;;30.70;86.40;;;;;;5126456;27;20473;-80
2023/08/14 09:40:14;;;;;;;9.40;4.37;;;31.40;83.80;;;;;;5124755;27;20451;-80
2023/08/14 09:42:43;;;;;;;7.30;2.80;;;31.40;83.50;;;;;;5136383;27;20442;-78
2023/08/14 09:45:23;;;;;;;5.70;3.30;;;32.20;82.40;;;;;;5129503;27;20538;-79
2023/08/14 09:47:52;;;;;;;6.00;3.43;;;32.50;82.20;;;;;;5121098;27;20970;-80
2023/08/14 09:50:25;;;;;;;6.20;3.40;;;32.40;82.20;;;;;;5148174;27;20439;-79
2023/08/14 09:52:56;;;;;;;7.77;3.70;;;32.60;80.80;;;;;;5132462;27;20447;-78
2023/08/14 09:55:24;;;;;;;4.60;3.17;;;32.80;80.10;;;;;;5136200;27;20451;-80
2023/08/14 09:57:53;;;;;;;7.83;4.10;;;32.90;80.60;;;;;;5138407;27;20452;-79
2023/08/14 10:00:20;;;;;;;9.53;4.10;;;33.40;78.70;;;;;;5123805;27;20465;-80
2023/08/14 10:02:49;;;;;;;5.50;3.03;;;33.20;77.70;;;;;;5136834;27;20434;-81
2023/08/14 10:05:16;;;;;;;9.00;4.80;;;33.00;78.70;;;;;;5129378;28;20462;-80
2023/08/14 10:07:45;;;;;;;5.30;3.23;;;32.30;80.20;;;;;;5126646;27;20475;-81
2023/08/14 10:10:14;;;;;;;9.63;4.80;;;31.70;81.40;;;;;;5131176;28;20594;-78
2023/08/14 10:12:46;;;;;;;9.93;4.40;;;30.80;83.00;;;;;;5133596;27;20458;-79
2023/08/14 10:15:18;;;;;;;5.50;3.73;;;30.50;86.00;;;;;;5125909;27;20467;-79
2023/08/14 10:17:52;;;;;;;7.93;4.30;;;31.60;83.10;;;;;;5135451;27;20450;-79
2023/08/14 10:20:21;;;;;;;6.43;4.60;;;32.30;82.40;;;;;;5127761;27;20834;-78
2023/08/14 10:22:52;;;;;;;6.87;3.87;;;32.40;80.60;;;;;;5127654;27;20504;-78
2023/08/14 10:25:21;;;;;;;6.13;4.30;;;32.00;81.10;;;;;;5135405;27;20565;-77
2023/08/14 10:27:48;;;;;;;5.80;3.90;;;31.60;81.80;;;;;;5130018;27;20434;-78
2023/08/14 10:30:18;;;;;;;7.90;3.97;;;31.60;84.10;;;;;;5134317;27;20454;-79
2023/08/14 10:32:47;;;;;;;3.60;3.00;;;32.00;82.50;;;;;;5125620;27;20526;-79
2023/08/14 10:35:14;;;;;;;6.33;3.67;;;32.00;81.00;;;;;;5122290;27;20461;-80
2023/08/14 10:37:43;;;;;;;7.80;4.10;;;31.50;80.60;;;;;;5124296;27;20447;-79
2023/08/14 10:40:19;;;;;;;6.60;3.83;;;31.10;82.10;;;;;;5133476;27;20470;-79
2023/08/14 10:42:46;;;;;;;7.60;4.50;;;30.80;84.80;;;;;;5120892;27;20482;-80
2023/08/14 10:45:17;;;;;;;5.93;3.40;;;30.80;85.30;;;;;;5135030;27;20527;-79
2023/08/14 10:47:44;;;;;;;7.43;4.07;;;30.40;84.10;;;;;;5127694;27;20465;-79
2023/08/14 10:50:16;;;;;;;6.10;3.27;;;30.20;83.90;;;;;;5127167;27;20474;-79
2023/08/14 10:52:48;;;;;;;6.60;3.30;;;30.20;84.70;;;;;;5134023;27;20521;-80
2023/08/14 10:55:18;;;;;;;4.87;3.20;;;30.30;84.30;;;;;;5127752;27;20474;-78
2023/08/14 10:57:46;;;;;;;5.03;2.80;;;30.40;83.80;;;;;;5131343;27;20534;-78
2023/08/14 11:00:26;;;;;;;4.63;2.70;;;30.20;79.40;;;;;;5120900;27;20537;-79
2023/08/14 11:03:05;;;;;;;8.93;3.33;;;30.30;79.60;;;;;;5125007;27;20436;-79
2023/08/14 11:05:37;;;;;;;4.70;3.10;;;30.40;82.50;;;;;;5127385;27;20585;-79
2023/08/14 11:08:06;;;;;;;5.70;2.73;;;30.50;79.10;;;;;;5134710;27;20442;-79
2023/08/14 11:10:35;;;;;;;6.60;3.03;;;30.50;80.00;;;;;;5135102;27;20450;-79
2023/08/14 11:13:06;;;;;;;5.17;2.60;;;30.30;80.10;;;;;;5136134;27;20470;-78
2023/08/14 11:15:36;;;;;;;4.50;3.33;;;29.80;81.80;;;;;;5139661;27;20455;-78
2023/08/14 11:18:05;;;;;;;4.63;2.60;;;29.60;81.80;;;;;;5144549;27;20534;-79
2023/08/14 11:20:33;;;;;;;6.53;2.83;;;29.40;82.80;;;;;;5133168;27;20443;-79
2023/08/14 11:23:07;;;;;;;7.13;3.53;;;29.30;82.20;;;;;;5142362;27;20470;-78
2023/08/14 11:25:36;;;;;;;4.93;2.47;;;29.50;81.50;;;;;;5131823;27;20478;-79
2023/08/14 11:28:03;;;;;;;6.87;3.30;;;29.50;83.30;;;;;;5128555;27;20822;-80
2023/08/14 11:30:32;;;;;;;5.17;3.07;;;29.40;81.50;;;;;;5129031;27;20458;-79
2023/08/14 11:32:59;;;;;;;5.67;2.40;;;29.40;81.10;;;;;;5134527;27;20434;-78
2023/08/14 11:35:29;;;;;;;5.10;2.93;;;29.40;80.60;;;;;;5124371;27;20496;-79
2023/08/14 11:37:56;;;;;;;5.67;2.90;;;29.20;80.70;;;;;;5140065;27;20959;-79
2023/08/14 11:40:25;;;;;;;6.17;2.80;;;28.90;82.00;;;;;;5129821;27;20899;-79
2023/08/14 11:42:55;;;;;;;3.60;2.63;;;28.90;83.00;;;;;;5130340;27;20435;-78
2023/08/14 11:45:22;;;;;;;5.80;3.47;;;28.90;83.00;;;;;;5142326;27;20950;-80
2023/08/14 11:47:50;;;;;;;6.70;3.27;;;28.90;82.50;;;;;;5124712;27;20436;-79
2023/08/14 11:50:18;;;;;;;10.40;3.37;;;28.90;82.20;;;;;;5133808;27;20435;-79
2023/08/14 11:52:46;;;;;;;6.70;3.33;;;28.80;81.90;;;;;;5123424;27;20488;-79
2023/08/14 11:55:14;;;;;;;5.60;2.30;;;28.90;83.10;;;;;;5131714;27;20887;-79
2023/08/14 11:57:43;;;;;;;4.00;2.80;;;28.70;82.10;;;;;;5124465;27;20541;-78
2023/08/14 12:00:13;;;;;;;3.57;2.30;;;28.70;82.50;;;;;;5127060;27;20986;-77
2023/08/14 12:02:41;;;;;;;3.73;2.33;;;28.50;82.30;;;;;;5130570;27;20442;-79
2023/08/14 12:05:09;;;;;;;4.57;3.37;;;28.40;83.20;;;;;;5129518;27;20873;-78
2023/08/14 12:07:36;;;;;;;6.60;3.10;;;28.10;84.20;;;;;;5131591;27;20983;-79
2023/08/14 12:10:07;;;;;;;5.70;2.80;;;28.00;85.70;;;;;;5131391;27;20466;-79
2023/08/14 12:12:34;;;;;;;7.03;3.20;;;27.80;84.90;;;;;;5127920;27;20989;-79
2023/08/14 12:15:01;;;;;;;7.03;3.00;;;27.80;84.80;;;;;;5124276;27;20459;-79
2023/08/14 12:17:30;;;;;;;3.87;2.57;;;27.60;84.50;;;;;;5127987;27;20474;-79
2023/08/14 12:19:58;;;;;;;5.60;3.27;;;27.50;86.20;;;;;;5129072;27;20526;-78
2023/08/14 12:22:27;;;;;;;5.33;2.60;;;27.70;86.50;;;;;;5139482;27;20467;-78
2023/08/14 12:24:55;;;;;;;8.00;5.60;;;27.80;86.30;;;;;;5135931;27;20467;-78
2023/08/14 12:27:23;;;;;;;5.77;3.13;;;27.90;86.70;;;;;;5127657;27;20474;-79
2023/08/14 12:29:51;;;;;;;7.37;3.47;;;27.80;86.60;;;;;;5127264;27;20953;-79
2023/08/14 12:32:18;;;;;;;8.63;3.20;;;27.80;87.40;;;;;;5132107;27;20491;-79
2023/08/14 12:34:48;;;;;;;5.33;3.03;;;27.80;87.10;;;;;;5119254;27;20606;-79
2023/08/14 12:37:15;;;;;;;6.77;2.80;;;27.70;87.00;;;;;;5127184;27;20527;-80
2023/08/14 12:39:48;;;;;;;8.83;3.10;;;27.90;86.60;;;;;;5127606;27;20447;-79
2023/08/14 12:42:15;;;;;;;4.43;3.10;;;27.90;86.50;;;;;;5123121;27;20465;-79
2023/08/14 12:44:43;;;;;;;4.93;2.90;;;27.90;87.60;;;;;;5130443;27;20484;-79
2023/08/14 12:47:10;;;;;;;5.93;3.20;;;28.20;88.10;;;;;;5131139;27;20509;-79
2023/08/14 12:49:37;;;;;;;5.63;4.03;;;28.50;86.60;;;;;;5132544;27;20587;-78